Perth Jandakot Airport

YPJT · Western Australia, Australia

Historia METAR YPJT · Perth Jandakot Airport

Poniżej widzisz METAR-y z ostatnich kilku dni. Wybierz rok, aby przeglądać starsze METAR-y, począwszy od roku 2007.

24 czerwca 2024

Czas Kod Pogoda Temp. Widoczność Sufit Wiatr METAR/SPECI
08:00
V
4 °C 10 km+ - 360° 360° 0 kt METAR YPJT 240000Z AUTO 00000KT 9999 // NCD 04/04 Q1026 RF00.0/000.0
07:30
V
3 °C 10 km+ - 360° 360° 0 kt METAR YPJT 232330Z AUTO 00000KT 9999 // NCD 03/03 Q1026 RF00.0/000.0
07:00
V
3 °C 8 km - 360° 360° 0 kt METAR YPJT 232300Z AUTO 00000KT 8000 // NCD 03/02 Q1026 RF00.0/000.0
06:30
V
4 °C 10 km+ - 360° 360° 0 kt METAR YPJT 232230Z AUTO 00000KT 9999 // NCD 04/03 Q1026 RF00.0/000.0
06:03
V
4 °C 10 km+ - 360° 360° 0 kt METAR YPJT 232203Z AUTO 00000KT 9999 // NCD 04/04 Q1026 RF00.0/000.0
06:00
V
4 °C 9 km - 360° 360° 0 kt METAR YPJT 232200Z AUTO 00000KT 9000 // NCD 04/03 Q1026 RF00.0/000.0
05:43
M
3 °C 5 km - 360° 360° 0 kt METAR YPJT 232143Z AUTO 00000KT 5000 BR NCD 03/03 Q1026 RF00.0/000.0
05:33
V
4 °C 9 km - 360° 360° 0 kt METAR YPJT 232133Z AUTO 00000KT 9000 // NCD 04/03 Q1025 RF00.0/000.0
05:04
M
4 °C 5 km - 140° 140° 3 kt METAR YPJT 232104Z AUTO 14003KT 5000 BR NCD 04/03 Q1026 RF00.0/000.0
04:30
M
3 °C 7 km - 160° 160° 1 kt METAR YPJT 232030Z AUTO 16001KT 7000 // NCD 03/02 Q1026 RF00.0/000.0
04:00
M
4 °C 7 km - 360° 360° 0 kt METAR YPJT 232000Z AUTO 00000KT 7000 // NCD 04/03 Q1026 RF00.0/000.0
03:30
V
4 °C 9 km - 360° 360° 0 kt METAR YPJT 231930Z AUTO 00000KT 9000 // NCD 04/03 Q1026 RF00.0/000.0
03:00
V
4 °C 9 km - 360° 360° 0 kt METAR YPJT 231900Z AUTO 00000KT 9000 // NCD 04/04 Q1026 RF00.0/000.0
02:30
V
4 °C 8 km - 360° 360° 0 kt METAR YPJT 231830Z AUTO 00000KT 8000 // NCD 04/03 Q1026 RF00.0/000.0
02:00
V
5 °C 9 km - 360° 360° 0 kt METAR YPJT 231800Z AUTO 00000KT 9000 // NCD 05/05 Q1027 RF00.0/000.0
01:30
M
5 °C 7 km - 360° 360° 0 kt METAR YPJT 231730Z AUTO 00000KT 7000 // NCD 05/04 Q1027 RF00.0/000.0
01:00
M
4 °C 6 km - 360° 360° 0 kt METAR YPJT 231700Z AUTO 00000KT 6000 // NCD 04/03 Q1027 RF00.0/000.0
00:30
V
5 °C 8 km - 360° 360° 0 kt METAR YPJT 231630Z AUTO 00000KT 8000 // NCD 05/04 Q1027 RF00.0/000.0
00:00
V
6 °C 10 km+ - 360° 360° 0 kt METAR YPJT 231600Z AUTO 00000KT 9999 // NCD 06/05 Q1027 RF00.0/000.0

23 czerwca 2024

Czas Kod Pogoda Temp. Widoczność Sufit Wiatr METAR/SPECI
23:30
V
6 °C 10 km+ - 360° 360° 0 kt METAR YPJT 231530Z AUTO 00000KT 9999 // NCD 06/05 Q1027 RF00.0/000.0
23:00
V
7 °C 10 km+ - 360° 360° 0 kt METAR YPJT 231500Z AUTO 00000KT 9999 // NCD 07/05 Q1027 RF00.0/000.0
22:30
V
7 °C 10 km+ - 360° 360° 0 kt METAR YPJT 231430Z AUTO 00000KT 9999 // NCD 07/05 Q1027 RF00.0/000.0
22:00
V
8 °C 10 km+ - 360° 360° 0 kt METAR YPJT 231400Z AUTO 00000KT 9999 // NCD 08/06 Q1027 RF00.0/000.0
21:30
V
8 °C 10 km+ - 190° 190° 2 kt METAR YPJT 231330Z AUTO 19002KT 9999 // NCD 08/05 Q1027 RF00.0/000.0
21:00
V
9 °C 10 km+ - 180° 180° 4 kt METAR YPJT 231300Z AUTO 18004KT 9999 // NCD 09/06 Q1027 RF00.0/000.0
20:30
V
10 °C 10 km+ - 170° 170° 5 kt METAR YPJT 231230Z AUTO 17005KT 9999 // NCD 10/07 Q1027 RF00.0/000.0
20:00
V
11 °C 10 km+ - 160° 160° 6 kt METAR YPJT 231200Z AUTO 16006KT 9999 // NCD 11/06 Q1027 RF00.0/000.0
19:30
V
12 °C 10 km+ - 170° 170° 5 kt METAR YPJT 231130Z AUTO 17005KT 9999 // NCD 12/06 Q1027 RF00.0/000.0
19:00
V
12 °C 10 km+ - 180° 180° 7 kt METAR YPJT 231100Z AUTO 18007KT 9999 // NCD 12/06 Q1027 RF00.0/000.0
18:30
V
13 °C 10 km+ - 190° 190° 6 kt METAR YPJT 231030Z AUTO 19006KT 9999 // NCD 13/06 Q1026 RF00.0/000.0
18:00
V
13 °C 10 km+ - 190° 190° 5 kt METAR YPJT 231000Z AUTO 19005KT 9999 // NCD 13/06 Q1026 RF00.0/000.0
17:30
V
15 °C 10 km+ - 190° 190° 6 kt METAR YPJT 230930Z AUTO 19006KT 9999 // NCD 15/05 Q1026 RF00.0/000.0
17:00
V
16 °C 10 km+ - 190° 190° 10 kt METAR YPJT 230900Z AUTO 19010KT 9999 // NCD 16/05 Q1026 RF00.0/000.0
16:30
V
16 °C 10 km+ - 170° 170° 10 kt METAR YPJT 230830Z AUTO 17010KT 9999 // NCD 16/06 Q1026 RF00.0/000.0
16:00
V
17 °C 10 km+ - 190° 190° 9 kt METAR YPJT 230800Z AUTO 19009KT 9999 // NCD 17/06 Q1026 RF00.0/000.0
15:30
V
17 °C 10 km+ - 180° 180° 11 kt METAR YPJT 230730Z AUTO 18011KT 9999 // SCT044 17/06 Q1026 RF00.0/000.0
15:00
V
18 °C 10 km+ 5.000 ft 180° 180° 9 kt METAR YPJT 230700Z AUTO 18009KT 9999 // FEW042 BKN050 18/07 Q1026
14:30
V
17 °C 10 km+ 5.000 ft 180° 180° 11 kt METAR YPJT 230630Z AUTO 18011KT 9999 // SCT042 OVC050 17/07 Q1026
14:00
V
18 °C 10 km+ 5.000 ft 190° 190° 11 kt METAR YPJT 230600Z AUTO 19011KT 9999 // FEW040 BKN050 18/08 Q1026
13:30
V
17 °C 10 km+ - 200° 200° 13 kt METAR YPJT 230530Z AUTO 20013KT 9999 // FEW047 17/08 Q1026 RF00.0/000.0
13:00
V
17 °C 10 km+ 4.300 ft 190° 190° 10 kt METAR YPJT 230500Z AUTO 19010KT 9999 // OVC043 17/08 Q1026 RF00.0/000.0
12:30
V
16 °C 10 km+ 4.000 ft 200° 200° 12 kt METAR YPJT 230430Z AUTO 20012KT 9999 // FEW032 BKN040 16/08 Q1026
12:00
V
16 °C 10 km+ 5.800 ft 180° 180° 11 kt METAR YPJT 230400Z AUTO 18011KT 9999 // FEW032 SCT038 OVC058 16/09 Q1027
11:30
V
16 °C 10 km+ 3.600 ft 170° 170° 9 kt METAR YPJT 230330Z AUTO 17009KT 9999 // BKN036 BKN046 OVC052 16/09 Q1027
11:00
V
15 °C 10 km+ 3.800 ft 170° 170° 6 kt METAR YPJT 230300Z AUTO 17006KT 9999 // FEW028 BKN038 OVC048 15/09 Q1028
10:30
V
15 °C 10 km+ - 150° 150° 6 kt METAR YPJT 230230Z AUTO 15006KT 9999 // SCT038 15/09 Q1028 RF00.0/000.0
10:00
V
14 °C 10 km+ - 110° 110° 4 kt METAR YPJT 230200Z AUTO 11004KT 9999 // FEW033 14/09 Q1027 RF00.0/000.0
09:30
V
13 °C 10 km+ 5.600 ft 090° 090° 5 kt METAR YPJT 230130Z AUTO 09005KT 9999 // BKN056 BKN064 13/09 Q1027
09:00
V
11 °C 10 km+ 4.100 ft 350° 350° 2 kt METAR YPJT 230100Z AUTO 35002KT 9999 // BKN041 BKN048 OVC063 11/08 Q1027
08:30
V
10 °C 10 km+ 4.800 ft 360° 360° 0 kt METAR YPJT 230030Z AUTO 00000KT 9999 // SCT038 BKN048 OVC061 10/08 Q1027
08:00
V
9 °C 10 km+ - 360° 360° 0 kt METAR YPJT 230000Z AUTO 00000KT 9999 // FEW038 09/08 Q1026 RF00.0/000.0
07:30
V
8 °C 10 km+ - 360° 360° 0 kt METAR YPJT 222330Z AUTO 00000KT 9999 // FEW040 SCT056 08/07 Q1026
07:00
V
8 °C 10 km+ 4.200 ft 360° 360° 0 kt METAR YPJT 222300Z AUTO 00000KT 9999 // BKN042 BKN047 BKN062 08/06 Q1026
06:30
V
8 °C 10 km+ - 360° 360° 0 kt METAR YPJT 222230Z AUTO 00000KT 9999 // FEW059 08/06 Q1026 RF00.0/000.0
06:00
V
8 °C 10 km+ 6.100 ft 360° 360° 0 kt METAR YPJT 222200Z AUTO 00000KT 9999 // FEW041 OVC061 08/06 Q1025
05:30
V
9 °C 10 km+ 5.400 ft 120° 120° 4 kt METAR YPJT 222130Z AUTO 12004KT 100V160 9999 // FEW043 OVC054 09/07 Q1025
05:00
V
9 °C 10 km+ 5.800 ft 360° 360° 0 kt METAR YPJT 222100Z AUTO 00000KT 9999 // BKN058 09/06 Q1025 RF00.0/000.0
04:30
V
8 °C 10 km+ 5.800 ft 360° 360° 0 kt METAR YPJT 222030Z AUTO 00000KT 9999 // SCT047 OVC058 08/07 Q1025
04:00
V
8 °C 10 km+ 6.000 ft 040° 040° 4 kt METAR YPJT 222000Z AUTO 04004KT 9999 // BKN060 08/06 Q1025 RF00.0/000.0
03:30
V
9 °C 10 km+ - 150° 150° 6 kt METAR YPJT 221930Z AUTO 15006KT 9999 // SCT064 09/07 Q1025 RF00.0/000.0
03:00
V
9 °C 10 km+ - 360° 360° 4 kt METAR YPJT 221900Z AUTO 36004KT 220V030 9999 // NCD 09/07 Q1025 RF00.0/000.0
02:30
V
10 °C 10 km+ 4.700 ft 360° 360° 0 kt METAR YPJT 221830Z AUTO 00000KT 9999 // BKN047 BKN052 OVC062 10/07 Q1025
02:00
V
10 °C 10 km+ 5.300 ft 060° 060° 5 kt METAR YPJT 221800Z AUTO 06005KT 9999 // BKN053 OVC062 10/07 Q1025
01:30
V
11 °C 10 km+ 4.500 ft 360° 360° 0 kt METAR YPJT 221730Z AUTO 00000KT 9999 // BKN045 OVC055 11/08 Q1025
01:00
V
10 °C 10 km+ 5.900 ft 110° 110° 2 kt METAR YPJT 221700Z AUTO 11002KT 9999 // OVC059 10/07 Q1025 RF00.0/000.0
00:30
V
11 °C 10 km+ 6.100 ft 090° 090° 3 kt METAR YPJT 221630Z AUTO 09003KT 9999 // BKN061 11/07 Q1025 RF00.0/000.0
00:00
V
11 °C 10 km+ 6.300 ft 040° 040° 4 kt METAR YPJT 221600Z AUTO 04004KT 360V140 9999 // SCT047 BKN063 11/07 Q1024

22 czerwca 2024

Czas Kod Pogoda Temp. Widoczność Sufit Wiatr METAR/SPECI
23:30
V
10 °C 10 km+ 4.900 ft 110° 110° 3 kt METAR YPJT 221530Z AUTO 11003KT 9999 // BKN049 OVC059 10/08 Q1025
23:00
V
10 °C 10 km+ 6.100 ft 360° 360° 0 kt METAR YPJT 221500Z AUTO 00000KT 9999 // OVC061 10/07 Q1024 RF00.0/000.0
22:30
V
9 °C 10 km+ 6.100 ft 360° 360° 0 kt METAR YPJT 221430Z AUTO 00000KT 9999 // BKN061 09/06 Q1024 RF00.0/000.0
22:00
V
11 °C 10 km+ 6.100 ft 360° 360° 0 kt METAR YPJT 221400Z AUTO 00000KT 9999 // BKN061 11/07 Q1024 RF00.0/000.0
21:30
V
12 °C 10 km+ 5.400 ft 360° 360° 0 kt METAR YPJT 221330Z AUTO 00000KT 9999 // BKN054 OVC063 12/06 Q1024
21:00
V
11 °C 10 km+ 5.900 ft 360° 360° 0 kt METAR YPJT 221300Z AUTO 00000KT 9999 // BKN059 11/07 Q1024 RF00.0/000.0
20:30
V
11 °C 10 km+ 5.900 ft 360° 360° 0 kt METAR YPJT 221230Z AUTO 00000KT 9999 // OVC059 11/07 Q1024 RF00.0/000.0
20:00
V
10 °C 10 km+ 5.700 ft 160° 160° 3 kt METAR YPJT 221200Z AUTO 16003KT 9999 // OVC057 10/06 Q1023 RF00.0/000.0
19:30
V
11 °C 10 km+ 5.700 ft 160° 160° 3 kt METAR YPJT 221130Z AUTO 16003KT 9999 // OVC057 11/07 Q1023 RF00.0/000.0
19:00
V
12 °C 10 km+ 5.900 ft 170° 170° 3 kt METAR YPJT 221100Z AUTO 17003KT 9999 // FEW047 OVC059 12/05 Q1023
18:30
V
14 °C 10 km+ 5.300 ft 190° 190° 4 kt METAR YPJT 221030Z AUTO 19004KT 9999 // FEW045 BKN053 OVC061 14/05 Q1022
18:00
V
14 °C 10 km+ - 210° 210° 5 kt METAR YPJT 221000Z AUTO 21005KT 9999 // SCT059 14/05 Q1022 RF00.0/000.0 GENERATED FROM 22/06/2024 09
17:30
V
15 °C 10 km+ - 200° 200° 7 kt METAR YPJT 220930Z AUTO 20007KT 9999 // NCD 15/05 Q1022 RF00.0/000.0
17:00
V
16 °C 10 km+ - 200° 200° 10 kt METAR YPJT 220900Z AUTO 20010KT 9999 // SCT055 16/05 Q1021 RF00.0/000.0
16:30
V
17 °C 10 km+ 6.500 ft 210° 210° 10 kt METAR YPJT 220830Z AUTO 21010KT 9999 // SCT054 BKN065 17/06 Q1021
16:00
V
17 °C 10 km+ - 220° 220° 13 kt METAR YPJT 220800Z AUTO 22013KT 9999 // FEW051 17/06 Q1020 RF00.0/000.0
15:30
V
18 °C 10 km+ - 210° 210° 13 kt METAR YPJT 220730Z AUTO 21013KT 9999 // FEW043 SCT050 18/06 Q1020
15:00
V
18 °C 10 km+ 4.100 ft 200° 200° 15 kt METAR YPJT 220700Z AUTO 20015KT 9999 // BKN041 BKN052 18/07 Q1020
14:30
V
18 °C 10 km+ - 220° 220° 16 kt METAR YPJT 220630Z AUTO 22016KT 9999 // FEW041 18/07 Q1020 RF00.0/000.0
14:00
V
18 °C 10 km+ - 230° 230° 15 kt METAR YPJT 220600Z AUTO 23015KT 9999 // SCT043 18/07 Q1020 RF00.0/000.0
13:30
V
18 °C 10 km+ 3.200 ft 200° 200° 13 kt METAR YPJT 220530Z AUTO 20013KT 9999 // BKN032 BKN042 18/09 Q1020
13:00
V
17 °C 10 km+ - 210° 210° 14 kt METAR YPJT 220500Z AUTO 21014KT 9999 // FEW032 SCT055 17/10 Q1020
12:30
V
17 °C 10 km+ - 210° 210° 20 kt METAR YPJT 220430Z AUTO 21020KT 9999 // FEW051 17/09 Q1020 RF00.0/000.0
12:00
V
18 °C 10 km+ - 230° 230° 16 kt METAR YPJT 220400Z AUTO 23016KT 9999 // FEW049 18/05 Q1020 RF00.0/000.0
11:30
V
18 °C 10 km+ - 220° 220° 16 kt METAR YPJT 220330Z AUTO 22016KT 9999 // FEW054 SCT065 18/06 Q1020
11:00
V
18 °C 10 km+ - 230° 230° 13 kt METAR YPJT 220300Z AUTO 23013KT 9999 // FEW052 SCT069 18/08 Q1020
10:30
V
18 °C 10 km+ - 240° 240° 13 kt METAR YPJT 220230Z AUTO 24013KT 9999 // FEW052 18/07 Q1020 RF00.0/000.0
10:00
V
18 °C 10 km+ - 230° 230° 13 kt METAR YPJT 220200Z AUTO 23013KT 9999 // NCD 18/08 Q1020 RF00.0/000.0
09:30
V
17 °C 10 km+ - 230° 230° 13 kt METAR YPJT 220130Z AUTO 23013KT 9999 // SCT054 17/08 Q1019 RF00.0/000.0
09:00
V
16 °C 10 km+ 4.600 ft 220° 220° 9 kt METAR YPJT 220100Z AUTO 22009KT 9999 // BKN046 BKN050 OVC067 16/10 Q1019
08:30
V
16 °C 10 km+ 5.300 ft 230° 230° 12 kt METAR YPJT 220030Z AUTO 23012KT 9999 // FEW038 SCT044 BKN053 16/10 Q1018
08:00
V
16 °C 10 km+ 3.600 ft 220° 220° 10 kt METAR YPJT 220000Z AUTO 22010KT 9999 -SHRA FEW030 BKN036 OVC045 16/12 Q1018
07:30
V
15 °C 10 km+ 3.500 ft 220° 220° 9 kt METAR YPJT 212330Z AUTO 22009KT 9999 -SHRA FEW026 BKN035 BKN043 15/14 Q1017 RESHRA
07:00
M
15 °C 7 km 2.300 ft 200° 200° 6 kt METAR YPJT 212300Z AUTO 20006KT 7000 SHRA SCT010 SCT016 BKN023 15/15 Q1017
06:51
M
15 °C 6 km 1.600 ft 210° 210° 7 kt METAR YPJT 212251Z AUTO 21007KT 6000 SHRA SCT010 BKN016 BKN020 15/15 Q1016
06:41
M
15 °C 7 km 1.700 ft 210° 210° 6 kt METAR YPJT 212241Z AUTO 21006KT 7000 SHRA SCT008 BKN017 BKN022 15/15 Q1016
06:31
M
15 °C 10 km+ 2.100 ft 220° 220° 7 kt METAR YPJT 212231Z AUTO 22007KT 9999 SHRA FEW008 SCT015 BKN021 15/15 Q1016
06:16
I
15 °C 4,7 km 1.200 ft 210° 210° 14 kt METAR YPJT 212216Z AUTO 21014KT 4700 +SHRA SCT008 BKN012 BKN019 15/15 Q1016
06:06
M
15 °C 5 km 2.100 ft 210° 210° 16 kt METAR YPJT 212206Z AUTO 21016KT 5000 SHRA SCT006 BKN021 BKN028 15/15 Q1016
06:00
I
15 °C 8 km 800 ft 240° 240° 11 kt METAR YPJT 212200Z AUTO 24011KT 8000 SHRA BKN008 BKN020 BKN026 15/15 Q1016
05:35
M
16 °C 10 km+ 1.300 ft 250° 250° 11 kt METAR YPJT 212135Z AUTO 25011KT 250V340 9999 // BKN013 BKN016 OVC022 16/15 Q1015
05:00
M
13 °C 10 km+ 1.600 ft 330° 330° 8 kt METAR YPJT 212100Z AUTO 33008KT 280V030 9999 // BKN016 BKN020 OVC028 13/12 Q1015 RESHRA
04:40
M
12 °C 10 km+ 3.000 ft 010° 010° 9 kt METAR YPJT 212040Z AUTO 01009KT 9999 -SHRA FEW019 BKN030 BKN043 12/11 Q1015 RESHRA
04:30
M
13 °C 5 km 3.500 ft 360° 360° 8 kt METAR YPJT 212030Z AUTO 36008KT 5000 +SHRA SCT023 BKN035 BKN046 13/11 Q1015
04:20
I
13 °C 3,6 km 2.800 ft 360° 360° 11 kt METAR YPJT 212020Z AUTO 36011KT 3600 +SHRA FEW019 BKN028 BKN037 13/11 Q1015
04:00
V
14 °C 10 km+ 4.800 ft 360° 360° 9 kt METAR YPJT 212000Z AUTO 36009KT 9999 -SHRA SCT030 BKN048 BKN069 14/10 Q1015
03:30
V
14 °C 10 km+ - 360° 360° 11 kt METAR YPJT 211930Z AUTO 36011KT 9999 // FEW041 SCT066 14/08 Q1015
03:00
V
14 °C 10 km+ 6.100 ft 010° 010° 11 kt METAR YPJT 211900Z AUTO 01011KT 9999 // BKN061 OVC071 14/07 Q1015
02:30
V
13 °C 10 km+ 6.700 ft 020° 020° 9 kt METAR YPJT 211830Z AUTO 02009KT 9999 // BKN067 13/07 Q1015 RF00.0/000.0
02:00
V
13 °C 10 km+ - 010° 010° 10 kt METAR YPJT 211800Z AUTO 01010KT 9999 // NCD 13/06 Q1015 RF00.0/000.0
01:30
V
13 °C 10 km+ - 020° 020° 11 kt METAR YPJT 211730Z AUTO 02011KT 9999 // NCD 13/05 Q1015 RF00.0/000.0
01:00
V
13 °C 10 km+ 6.300 ft 020° 020° 10 kt METAR YPJT 211700Z AUTO 02010KT 9999 // FEW048 BKN063 13/05 Q1015
00:30
V
13 °C 10 km+ 5.700 ft 010° 010° 9 kt METAR YPJT 211630Z AUTO 01009KT 9999 // BKN057 13/04 Q1016 RF00.0/000.0
00:00
V
13 °C 10 km+ 5.700 ft 010° 010° 9 kt METAR YPJT 211600Z AUTO 01009KT 9999 // BKN057 13/05 Q1016 RF00.0/000.0

21 czerwca 2024

Czas Kod Pogoda Temp. Widoczność Sufit Wiatr METAR/SPECI
23:30
V
12 °C 10 km+ - 010° 010° 10 kt METAR YPJT 211530Z AUTO 01010KT 9999 // NCD 12/04 Q1016 RF00.0/000.0
23:00
V
12 °C 10 km+ - 020° 020° 10 kt METAR YPJT 211500Z AUTO 02010KT 9999 // NCD 12/05 Q1017 RF00.0/000.0
22:30
V
11 °C 10 km+ - 020° 020° 9 kt METAR YPJT 211430Z AUTO 02009KT 9999 // NCD 11/05 Q1017 RF00.0/000.0
22:00
V
11 °C 10 km+ - 020° 020° 9 kt METAR YPJT 211400Z AUTO 02009KT 9999 // NCD 11/05 Q1017 RF00.0/000.0
21:30
V
9 °C 10 km+ - 020° 020° 8 kt METAR YPJT 211330Z AUTO 02008KT 9999 // NCD 09/05 Q1018 RF00.0/000.0
21:00
V
10 °C 10 km+ - 010° 010° 6 kt METAR YPJT 211300Z AUTO 01006KT 9999 // NCD 10/05 Q1018 RF00.0/000.0
20:30
V
11 °C 10 km+ - 010° 010° 6 kt METAR YPJT 211230Z AUTO 01006KT 9999 // NCD 11/05 Q1018 RF00.0/000.0
20:00
V
10 °C 10 km+ - 010° 010° 6 kt METAR YPJT 211200Z AUTO 01006KT 9999 // NCD 10/05 Q1018 RF00.0/000.0
19:30
V
10 °C 10 km+ - 010° 010° 5 kt METAR YPJT 211130Z AUTO 01005KT 9999 // NCD 10/05 Q1018 RF00.0/000.0
19:00
V
10 °C 10 km+ - 020° 020° 5 kt METAR YPJT 211100Z AUTO 02005KT 9999 // NCD 10/05 Q1018 RF00.0/000.0
18:30
V
11 °C 10 km+ - 360° 360° 0 kt METAR YPJT 211030Z AUTO 00000KT 9999 // NCD 11/05 Q1018 RF00.0/000.0
18:00
V
13 °C 10 km+ - 360° 360° 0 kt METAR YPJT 211000Z AUTO 00000KT 9999 // NCD 13/06 Q1018 RF00.0/000.0
17:30
V
15 °C 10 km+ - 010° 010° 3 kt METAR YPJT 210930Z AUTO 01003KT 9999 // NCD 15/05 Q1018 RF00.0/000.0
17:00
V
17 °C 10 km+ - 020° 020° 8 kt METAR YPJT 210900Z AUTO 02008KT 9999 // NCD 17/04 Q1017 RF00.0/000.0
16:30
V
19 °C 10 km+ - 010° 010° 9 kt METAR YPJT 210830Z AUTO 01009KT 9999 // NCD 19/04 Q1017 RF00.0/000.0
16:00
V
20 °C 10 km+ - 360° 360° 11 kt METAR YPJT 210800Z AUTO 36011KT 9999 // NCD 20/04 Q1018 RF00.0/000.0
15:30
V
20 °C 10 km+ - 360° 360° 10 kt METAR YPJT 210730Z AUTO 36010KT 9999 // NCD 20/04 Q1018 RF00.0/000.0
15:00
V
20 °C 10 km+ - 010° 010° 10 kt METAR YPJT 210700Z AUTO 01010KT 9999 // NCD 20/05 Q1018 RF00.0/000.0
14:30
V
20 °C 10 km+ - 010° 010° 15 kt METAR YPJT 210630Z AUTO 01015KT 9999 // NCD 20/05 Q1018 RF00.0/000.0
14:00
V
19 °C 10 km+ - 360° 360° 13 kt METAR YPJT 210600Z AUTO 36013KT 9999 // NCD 19/06 Q1019 RF00.0/000.0
Zgłoś zmianę